< < Back
Terminal Aerodrome Forecast


Current Version              Previous Versions:   1  2  3  4  5  6  7  8  9  

Terminal Aerodrome Forecast

013
FTUS42 KFFC 201100
TAFFTY
TAF
KFTY 201136Z 2012/2112 00000KT P6SM SKC
      TEMPO 2012/2013 5SM BR
     FM201600 23004KT P6SM FEW040 FEW250
     FM210000 00000KT P6SM SCT100=

Latest METAR

056
SAUS70 KWBC 201100
MTRFTY
METAR KFTY 201053Z 00000KT 10SM CLR 07/06 A3011 RMK AO2 SLP192
T00720061


USA.gov is the U.S. government's official web portal to all federal, state and local government web resources and services.